sensor_id;sensor_type;location;lat;lon;timestamp;P1;durP1;ratioP1;P2;durP2;ratioP2
5900;SDS011;2976;49.764;9.796;2023-07-29T00:00:49;9.00;;;8.20;;
5900;SDS011;2976;49.764;9.796;2023-07-29T00:03:14;9.80;;;8.90;;
5900;SDS011;2976;49.764;9.796;2023-07-29T00:05:40;11.93;;;8.00;;
5900;SDS011;2976;49.764;9.796;2023-07-29T00:08:06;15.13;;;9.20;;
5900;SDS011;2976;49.764;9.796;2023-07-29T00:10:32;7.67;;;6.90;;
5900;SDS011;2976;49.764;9.796;2023-07-29T00:13:00;8.17;;;7.47;;
5900;SDS011;2976;49.764;9.796;2023-07-29T00:15:26;9.83;;;7.70;;
5900;SDS011;2976;49.764;9.796;2023-07-29T00:17:51;13.33;;;8.27;;
5900;SDS011;2976;49.764;9.796;2023-07-29T00:20:17;10.00;;;8.20;;
5900;SDS011;2976;49.764;9.796;2023-07-29T00:22:42;10.50;;;8.90;;
5900;SDS011;2976;49.764;9.796;2023-07-29T00:25:08;11.50;;;8.73;;
5900;SDS011;2976;49.764;9.796;2023-07-29T00:27:34;8.63;;;7.97;;
5900;SDS011;2976;49.764;9.796;2023-07-29T00:29:59;9.60;;;8.60;;
5900;SDS011;2976;49.764;9.796;2023-07-29T00:32:26;9.27;;;8.37;;
5900;SDS011;2976;49.764;9.796;2023-07-29T00:34:54;10.53;;;9.53;;
5900;SDS011;2976;49.764;9.796;2023-07-29T00:37:19;15.13;;;8.60;;
5900;SDS011;2976;49.764;9.796;2023-07-29T00:39:46;8.63;;;7.73;;
5900;SDS011;2976;49.764;9.796;2023-07-29T00:42:11;12.67;;;7.80;;
5900;SDS011;2976;49.764;9.796;2023-07-29T00:44:37;10.33;;;8.73;;
5900;SDS011;2976;49.764;9.796;2023-07-29T00:47:03;11.00;;;9.17;;
5900;SDS011;2976;49.764;9.796;2023-07-29T00:49:30;15.37;;;9.70;;
5900;SDS011;2976;49.764;9.796;2023-07-29T00:51:57;12.37;;;11.07;;
5900;SDS011;2976;49.764;9.796;2023-07-29T00:54:23;16.23;;;10.33;;
5900;SDS011;2976;49.764;9.796;2023-07-29T00:56:48;15.03;;;10.80;;
5900;SDS011;2976;49.764;9.796;2023-07-29T00:59:14;11.37;;;9.80;;
5900;SDS011;2976;49.764;9.796;2023-07-29T01:01:40;11.03;;;9.17;;
5900;SDS011;2976;49.764;9.796;2023-07-29T01:04:06;10.47;;;9.43;;
5900;SDS011;2976;49.764;9.796;2023-07-29T01:06:40;10.07;;;9.07;;
5900;SDS011;2976;49.764;9.796;2023-07-29T01:09:26;10.70;;;8.63;;
5900;SDS011;2976;49.764;9.796;2023-07-29T01:15:16;9.00;;;8.07;;
5900;SDS011;2976;49.764;9.796;2023-07-29T01:17:55;8.60;;;7.70;;
5900;SDS011;2976;49.764;9.796;2023-07-29T01:20:29;9.27;;;8.30;;
5900;SDS011;2976;49.764;9.796;2023-07-29T01:22:58;10.10;;;8.27;;
5900;SDS011;2976;49.764;9.796;2023-07-29T01:25:24;8.13;;;7.43;;
5900;SDS011;2976;49.764;9.796;2023-07-29T01:27:50;8.57;;;7.67;;
5900;SDS011;2976;49.764;9.796;2023-07-29T01:30:18;11.53;;;8.40;;
5900;SDS011;2976;49.764;9.796;2023-07-29T01:32:56;12.90;;;8.57;;
5900;SDS011;2976;49.764;9.796;2023-07-29T01:35:33;11.17;;;9.53;;
5900;SDS011;2976;49.764;9.796;2023-07-29T01:38:28;9.93;;;8.40;;
5900;SDS011;2976;49.764;9.796;2023-07-29T01:41:00;10.60;;;9.57;;
5900;SDS011;2976;49.764;9.796;2023-07-29T01:43:28;14.37;;;8.70;;
5900;SDS011;2976;49.764;9.796;2023-07-29T01:45:54;10.60;;;7.83;;
5900;SDS011;2976;49.764;9.796;2023-07-29T01:48:20;15.50;;;7.40;;
5900;SDS011;2976;49.764;9.796;2023-07-29T01:50:46;8.13;;;7.33;;
5900;SDS011;2976;49.764;9.796;2023-07-29T01:53:12;9.73;;;7.97;;
5900;SDS011;2976;49.764;9.796;2023-07-29T01:55:38;9.60;;;7.57;;
5900;SDS011;2976;49.764;9.796;2023-07-29T01:58:04;9.77;;;7.37;;
5900;SDS011;2976;49.764;9.796;2023-07-29T02:00:30;7.90;;;7.20;;
5900;SDS011;2976;49.764;9.796;2023-07-29T02:02:55;6.83;;;5.93;;
5900;SDS011;2976;49.764;9.796;2023-07-29T02:05:21;5.97;;;4.97;;
5900;SDS011;2976;49.764;9.796;2023-07-29T02:07:46;6.43;;;5.50;;
5900;SDS011;2976;49.764;9.796;2023-07-29T02:10:12;7.23;;;5.00;;
5900;SDS011;2976;49.764;9.796;2023-07-29T02:12:38;6.33;;;4.10;;
5900;SDS011;2976;49.764;9.796;2023-07-29T02:15:03;8.23;;;4.43;;
5900;SDS011;2976;49.764;9.796;2023-07-29T02:17:30;4.20;;;3.90;;
5900;SDS011;2976;49.764;9.796;2023-07-29T02:19:56;3.90;;;3.50;;
5900;SDS011;2976;49.764;9.796;2023-07-29T02:22:21;6.97;;;3.60;;
5900;SDS011;2976;49.764;9.796;2023-07-29T02:24:47;3.80;;;3.07;;
5900;SDS011;2976;49.764;9.796;2023-07-29T02:27:12;3.87;;;3.57;;
5900;SDS011;2976;49.764;9.796;2023-07-29T02:29:38;3.30;;;3.10;;
5900;SDS011;2976;49.764;9.796;2023-07-29T02:32:03;9.10;;;4.30;;
5900;SDS011;2976;49.764;9.796;2023-07-29T02:34:29;6.70;;;3.43;;
5900;SDS011;2976;49.764;9.796;2023-07-29T02:36:55;3.90;;;3.60;;
5900;SDS011;2976;49.764;9.796;2023-07-29T02:39:20;4.60;;;3.00;;
5900;SDS011;2976;49.764;9.796;2023-07-29T02:41:46;3.90;;;2.93;;
5900;SDS011;2976;49.764;9.796;2023-07-29T02:44:12;3.03;;;2.80;;
5900;SDS011;2976;49.764;9.796;2023-07-29T02:46:37;3.30;;;3.00;;
5900;SDS011;2976;49.764;9.796;2023-07-29T02:49:03;4.00;;;3.50;;
5900;SDS011;2976;49.764;9.796;2023-07-29T02:51:29;2.80;;;2.60;;
5900;SDS011;2976;49.764;9.796;2023-07-29T02:53:55;5.13;;;2.23;;
5900;SDS011;2976;49.764;9.796;2023-07-29T02:56:21;2.80;;;2.67;;
5900;SDS011;2976;49.764;9.796;2023-07-29T02:58:47;6.87;;;2.40;;
5900;SDS011;2976;49.764;9.796;2023-07-29T03:01:12;4.33;;;2.77;;
5900;SDS011;2976;49.764;9.796;2023-07-29T03:03:38;8.00;;;2.73;;
5900;SDS011;2976;49.764;9.796;2023-07-29T03:06:05;2.90;;;2.60;;
5900;SDS011;2976;49.764;9.796;2023-07-29T03:08:33;3.27;;;2.23;;
5900;SDS011;2976;49.764;9.796;2023-07-29T03:11:04;9.10;;;2.90;;
5900;SDS011;2976;49.764;9.796;2023-07-29T03:13:34;8.93;;;2.50;;
5900;SDS011;2976;49.764;9.796;2023-07-29T03:16:09;3.93;;;2.23;;
5900;SDS011;2976;49.764;9.796;2023-07-29T03:18:36;3.13;;;2.03;;
5900;SDS011;2976;49.764;9.796;2023-07-29T03:21:02;3.97;;;2.33;;
5900;SDS011;2976;49.764;9.796;2023-07-29T03:23:29;11.87;;;2.90;;
5900;SDS011;2976;49.764;9.796;2023-07-29T03:25:55;3.37;;;2.50;;
5900;SDS011;2976;49.764;9.796;2023-07-29T03:28:23;2.60;;;2.50;;
5900;SDS011;2976;49.764;9.796;2023-07-29T03:30:50;3.83;;;2.63;;
5900;SDS011;2976;49.764;9.796;2023-07-29T03:33:15;2.30;;;2.10;;
5900;SDS011;2976;49.764;9.796;2023-07-29T03:35:41;3.13;;;2.50;;
5900;SDS011;2976;49.764;9.796;2023-07-29T03:38:09;4.47;;;2.30;;
5900;SDS011;2976;49.764;9.796;2023-07-29T03:40:36;2.43;;;2.23;;
5900;SDS011;2976;49.764;9.796;2023-07-29T03:43:02;2.33;;;1.93;;
5900;SDS011;2976;49.764;9.796;2023-07-29T03:45:27;3.93;;;2.23;;
5900;SDS011;2976;49.764;9.796;2023-07-29T03:47:53;10.60;;;3.00;;
5900;SDS011;2976;49.764;9.796;2023-07-29T03:50:18;2.73;;;2.13;;
5900;SDS011;2976;49.764;9.796;2023-07-29T03:52:44;5.23;;;2.30;;
5900;SDS011;2976;49.764;9.796;2023-07-29T03:55:09;6.37;;;2.40;;
5900;SDS011;2976;49.764;9.796;2023-07-29T03:57:35;3.13;;;2.77;;
5900;SDS011;2976;49.764;9.796;2023-07-29T04:00:01;7.60;;;2.07;;
5900;SDS011;2976;49.764;9.796;2023-07-29T04:02:26;6.33;;;2.20;;
5900;SDS011;2976;49.764;9.796;2023-07-29T04:04:52;3.83;;;2.40;;
5900;SDS011;2976;49.764;9.796;2023-07-29T04:07:17;3.43;;;2.20;;
5900;SDS011;2976;49.764;9.796;2023-07-29T04:09:43;2.60;;;1.80;;
5900;SDS011;2976;49.764;9.796;2023-07-29T04:12:08;2.93;;;1.83;;
5900;SDS011;2976;49.764;9.796;2023-07-29T04:14:34;2.50;;;2.00;;
5900;SDS011;2976;49.764;9.796;2023-07-29T04:17:00;3.50;;;2.30;;
5900;SDS011;2976;49.764;9.796;2023-07-29T04:19:26;1.80;;;1.70;;
5900;SDS011;2976;49.764;9.796;2023-07-29T04:21:51;5.63;;;1.70;;
5900;SDS011;2976;49.764;9.796;2023-07-29T04:24:17;2.20;;;2.10;;
5900;SDS011;2976;49.764;9.796;2023-07-29T04:26:45;2.03;;;1.83;;
5900;SDS011;2976;49.764;9.796;2023-07-29T04:29:11;2.53;;;2.33;;
5900;SDS011;2976;49.764;9.796;2023-07-29T04:31:36;7.50;;;2.13;;
5900;SDS011;2976;49.764;9.796;2023-07-29T04:34:02;2.30;;;2.00;;
5900;SDS011;2976;49.764;9.796;2023-07-29T04:36:29;11.13;;;2.37;;
5900;SDS011;2976;49.764;9.796;2023-07-29T04:38:55;6.73;;;1.80;;
5900;SDS011;2976;49.764;9.796;2023-07-29T04:41:20;1.73;;;1.63;;
5900;SDS011;2976;49.764;9.796;2023-07-29T04:43:46;2.40;;;2.20;;
5900;SDS011;2976;49.764;9.796;2023-07-29T04:46:11;1.90;;;1.80;;
5900;SDS011;2976;49.764;9.796;2023-07-29T04:48:37;1.80;;;1.60;;
5900;SDS011;2976;49.764;9.796;2023-07-29T04:51:03;2.27;;;2.10;;
5900;SDS011;2976;49.764;9.796;2023-07-29T04:53:28;2.00;;;1.90;;
5900;SDS011;2976;49.764;9.796;2023-07-29T04:55:54;3.00;;;2.00;;
5900;SDS011;2976;49.764;9.796;2023-07-29T04:58:19;4.17;;;1.70;;
5900;SDS011;2976;49.764;9.796;2023-07-29T05:00:46;2.97;;;2.13;;
5900;SDS011;2976;49.764;9.796;2023-07-29T05:03:12;1.90;;;1.77;;
5900;SDS011;2976;49.764;9.796;2023-07-29T05:05:37;4.53;;;1.80;;
5900;SDS011;2976;49.764;9.796;2023-07-29T05:08:03;2.10;;;1.70;;
5900;SDS011;2976;49.764;9.796;2023-07-29T05:10:29;1.60;;;1.50;;
5900;SDS011;2976;49.764;9.796;2023-07-29T05:12:54;1.20;;;1.20;;
5900;SDS011;2976;49.764;9.796;2023-07-29T05:15:20;3.63;;;1.70;;
5900;SDS011;2976;49.764;9.796;2023-07-29T05:17:45;3.67;;;1.90;;
5900;SDS011;2976;49.764;9.796;2023-07-29T05:20:11;1.97;;;1.50;;
5900;SDS011;2976;49.764;9.796;2023-07-29T05:22:36;1.87;;;1.77;;
5900;SDS011;2976;49.764;9.796;2023-07-29T05:25:02;1.63;;;1.53;;
5900;SDS011;2976;49.764;9.796;2023-07-29T05:27:28;4.10;;;1.70;;
5900;SDS011;2976;49.764;9.796;2023-07-29T05:29:54;3.53;;;1.57;;
5900;SDS011;2976;49.764;9.796;2023-07-29T05:32:19;2.70;;;1.97;;
5900;SDS011;2976;49.764;9.796;2023-07-29T05:34:45;6.50;;;1.77;;
5900;SDS011;2976;49.764;9.796;2023-07-29T05:37:10;1.50;;;1.40;;
5900;SDS011;2976;49.764;9.796;2023-07-29T05:39:36;6.60;;;1.93;;
5900;SDS011;2976;49.764;9.796;2023-07-29T05:42:02;1.33;;;1.23;;
5900;SDS011;2976;49.764;9.796;2023-07-29T05:44:28;1.17;;;1.17;;
5900;SDS011;2976;49.764;9.796;2023-07-29T05:46:55;1.77;;;1.67;;
5900;SDS011;2976;49.764;9.796;2023-07-29T05:49:21;2.10;;;2.00;;
5900;SDS011;2976;49.764;9.796;2023-07-29T05:51:46;3.77;;;1.97;;
5900;SDS011;2976;49.764;9.796;2023-07-29T05:54:12;1.60;;;1.50;;
5900;SDS011;2976;49.764;9.796;2023-07-29T05:56:37;5.13;;;1.63;;
5900;SDS011;2976;49.764;9.796;2023-07-29T05:59:03;1.13;;;1.13;;
5900;SDS011;2976;49.764;9.796;2023-07-29T06:01:28;2.93;;;1.73;;
5900;SDS011;2976;49.764;9.796;2023-07-29T06:03:54;2.13;;;1.67;;
5900;SDS011;2976;49.764;9.796;2023-07-29T06:06:20;1.50;;;1.40;;
5900;SDS011;2976;49.764;9.796;2023-07-29T06:08:45;3.97;;;1.50;;
5900;SDS011;2976;49.764;9.796;2023-07-29T06:11:11;2.30;;;1.67;;
5900;SDS011;2976;49.764;9.796;2023-07-29T06:13:36;1.50;;;1.40;;
5900;SDS011;2976;49.764;9.796;2023-07-29T06:16:02;1.60;;;1.50;;
5900;SDS011;2976;49.764;9.796;2023-07-29T06:18:28;1.47;;;1.37;;
5900;SDS011;2976;49.764;9.796;2023-07-29T06:20:54;2.23;;;1.80;;
5900;SDS011;2976;49.764;9.796;2023-07-29T06:23:19;3.27;;;1.40;;
5900;SDS011;2976;49.764;9.796;2023-07-29T06:25:45;2.00;;;1.47;;
5900;SDS011;2976;49.764;9.796;2023-07-29T06:28:10;1.67;;;1.57;;
5900;SDS011;2976;49.764;9.796;2023-07-29T06:30:36;2.03;;;1.93;;
5900;SDS011;2976;49.764;9.796;2023-07-29T06:33:01;4.50;;;2.20;;
5900;SDS011;2976;49.764;9.796;2023-07-29T06:35:28;2.80;;;1.67;;
5900;SDS011;2976;49.764;9.796;2023-07-29T06:37:53;8.30;;;1.33;;
5900;SDS011;2976;49.764;9.796;2023-07-29T06:40:19;2.00;;;1.90;;
5900;SDS011;2976;49.764;9.796;2023-07-29T06:42:45;3.67;;;1.73;;
5900;SDS011;2976;49.764;9.796;2023-07-29T06:45:10;4.00;;;1.77;;
5900;SDS011;2976;49.764;9.796;2023-07-29T06:47:36;6.97;;;1.50;;
5900;SDS011;2976;49.764;9.796;2023-07-29T06:50:02;3.40;;;1.73;;
5900;SDS011;2976;49.764;9.796;2023-07-29T06:52:28;5.33;;;1.90;;
5900;SDS011;2976;49.764;9.796;2023-07-29T06:54:53;3.17;;;1.47;;
5900;SDS011;2976;49.764;9.796;2023-07-29T06:57:19;2.13;;;1.70;;
5900;SDS011;2976;49.764;9.796;2023-07-29T06:59:45;1.93;;;1.70;;
5900;SDS011;2976;49.764;9.796;2023-07-29T07:02:10;5.43;;;2.07;;
5900;SDS011;2976;49.764;9.796;2023-07-29T07:04:36;14.93;;;1.93;;
5900;SDS011;2976;49.764;9.796;2023-07-29T07:07:01;2.30;;;1.90;;
5900;SDS011;2976;49.764;9.796;2023-07-29T07:09:27;2.57;;;1.73;;
5900;SDS011;2976;49.764;9.796;2023-07-29T07:11:52;2.13;;;1.60;;
5900;SDS011;2976;49.764;9.796;2023-07-29T07:14:18;2.00;;;1.13;;
5900;SDS011;2976;49.764;9.796;2023-07-29T07:16:43;3.17;;;1.37;;
5900;SDS011;2976;49.764;9.796;2023-07-29T07:19:09;1.33;;;1.23;;
5900;SDS011;2976;49.764;9.796;2023-07-29T07:21:36;2.77;;;1.80;;
5900;SDS011;2976;49.764;9.796;2023-07-29T07:24:01;3.17;;;1.57;;
5900;SDS011;2976;49.764;9.796;2023-07-29T07:26:27;5.10;;;1.53;;
5900;SDS011;2976;49.764;9.796;2023-07-29T07:28:53;10.30;;;1.30;;
5900;SDS011;2976;49.764;9.796;2023-07-29T07:31:19;1.53;;;1.30;;
5900;SDS011;2976;49.764;9.796;2023-07-29T07:33:44;3.07;;;1.63;;
5900;SDS011;2976;49.764;9.796;2023-07-29T07:36:10;2.73;;;1.40;;
5900;SDS011;2976;49.764;9.796;2023-07-29T07:38:35;1.40;;;1.30;;
5900;SDS011;2976;49.764;9.796;2023-07-29T07:41:01;1.87;;;1.30;;
5900;SDS011;2976;49.764;9.796;2023-07-29T07:43:27;1.80;;;1.20;;
5900;SDS011;2976;49.764;9.796;2023-07-29T07:46:00;2.43;;;1.30;;
5900;SDS011;2976;49.764;9.796;2023-07-29T07:48:27;6.63;;;1.70;;
5900;SDS011;2976;49.764;9.796;2023-07-29T07:50:52;1.23;;;1.23;;
5900;SDS011;2976;49.764;9.796;2023-07-29T07:53:18;2.33;;;1.17;;
5900;SDS011;2976;49.764;9.796;2023-07-29T07:55:44;1.20;;;1.20;;
5900;SDS011;2976;49.764;9.796;2023-07-29T07:58:10;1.40;;;1.00;;
5900;SDS011;2976;49.764;9.796;2023-07-29T08:00:36;0.70;;;0.70;;
5900;SDS011;2976;49.764;9.796;2023-07-29T08:03:01;4.57;;;0.60;;
5900;SDS011;2976;49.764;9.796;2023-07-29T08:05:27;2.40;;;0.73;;
5900;SDS011;2976;49.764;9.796;2023-07-29T08:07:53;1.07;;;0.90;;
5900;SDS011;2976;49.764;9.796;2023-07-29T08:10:18;0.57;;;0.53;;
5900;SDS011;2976;49.764;9.796;2023-07-29T08:12:44;0.70;;;0.70;;
5900;SDS011;2976;49.764;9.796;2023-07-29T08:15:09;0.53;;;0.53;;
5900;SDS011;2976;49.764;9.796;2023-07-29T08:17:35;0.63;;;0.63;;
5900;SDS011;2976;49.764;9.796;2023-07-29T08:20:00;2.57;;;0.67;;
5900;SDS011;2976;49.764;9.796;2023-07-29T08:22:26;0.80;;;0.50;;
5900;SDS011;2976;49.764;9.796;2023-07-29T08:24:52;0.70;;;0.70;;
5900;SDS011;2976;49.764;9.796;2023-07-29T08:27:17;1.67;;;0.60;;
5900;SDS011;2976;49.764;9.796;2023-07-29T08:29:43;0.77;;;0.63;;
5900;SDS011;2976;49.764;9.796;2023-07-29T08:32:08;0.70;;;0.70;;
5900;SDS011;2976;49.764;9.796;2023-07-29T08:34:34;0.63;;;0.63;;
5900;SDS011;2976;49.764;9.796;2023-07-29T08:37:00;1.90;;;0.80;;
5900;SDS011;2976;49.764;9.796;2023-07-29T08:39:25;1.90;;;1.30;;
5900;SDS011;2976;49.764;9.796;2023-07-29T08:42:06;5.37;;;1.20;;
5900;SDS011;2976;49.764;9.796;2023-07-29T08:44:36;2.00;;;1.00;;
5900;SDS011;2976;49.764;9.796;2023-07-29T08:47:06;0.80;;;0.80;;
5900;SDS011;2976;49.764;9.796;2023-07-29T08:49:32;1.10;;;1.10;;
5900;SDS011;2976;49.764;9.796;2023-07-29T08:51:58;1.47;;;1.37;;
5900;SDS011;2976;49.764;9.796;2023-07-29T08:54:24;2.77;;;1.10;;
5900;SDS011;2976;49.764;9.796;2023-07-29T08:56:50;1.93;;;1.03;;
5900;SDS011;2976;49.764;9.796;2023-07-29T08:59:16;0.73;;;0.70;;
5900;SDS011;2976;49.764;9.796;2023-07-29T09:01:42;1.23;;;0.70;;
5900;SDS011;2976;49.764;9.796;2023-07-29T09:04:08;0.87;;;0.50;;
5900;SDS011;2976;49.764;9.796;2023-07-29T09:06:34;0.70;;;0.60;;
5900;SDS011;2976;49.764;9.796;2023-07-29T09:09:01;0.30;;;0.30;;
5900;SDS011;2976;49.764;9.796;2023-07-29T09:11:27;0.70;;;0.60;;
5900;SDS011;2976;49.764;9.796;2023-07-29T09:13:53;0.47;;;0.47;;
5900;SDS011;2976;49.764;9.796;2023-07-29T09:16:19;2.17;;;0.43;;
5900;SDS011;2976;49.764;9.796;2023-07-29T09:18:49;1.10;;;0.80;;
5900;SDS011;2976;49.764;9.796;2023-07-29T09:21:16;0.90;;;0.50;;
5900;SDS011;2976;49.764;9.796;2023-07-29T09:23:43;1.53;;;0.70;;
5900;SDS011;2976;49.764;9.796;2023-07-29T09:26:09;1.70;;;0.77;;
5900;SDS011;2976;49.764;9.796;2023-07-29T09:28:36;3.60;;;0.60;;
5900;SDS011;2976;49.764;9.796;2023-07-29T09:31:03;0.93;;;0.47;;
5900;SDS011;2976;49.764;9.796;2023-07-29T09:33:29;4.87;;;0.93;;
5900;SDS011;2976;49.764;9.796;2023-07-29T09:35:59;3.90;;;0.87;;
5900;SDS011;2976;49.764;9.796;2023-07-29T09:38:26;1.77;;;1.13;;
5900;SDS011;2976;49.764;9.796;2023-07-29T09:40:54;1.07;;;0.70;;
5900;SDS011;2976;49.764;9.796;2023-07-29T09:43:20;0.40;;;0.40;;
5900;SDS011;2976;49.764;9.796;2023-07-29T09:45:51;6.20;;;0.53;;
5900;SDS011;2976;49.764;9.796;2023-07-29T09:48:17;0.60;;;0.60;;
5900;SDS011;2976;49.764;9.796;2023-07-29T09:50:47;1.50;;;0.70;;
5900;SDS011;2976;49.764;9.796;2023-07-29T09:53:13;0.70;;;0.70;;
5900;SDS011;2976;49.764;9.796;2023-07-29T09:55:39;4.20;;;1.07;;
5900;SDS011;2976;49.764;9.796;2023-07-29T09:58:10;0.93;;;0.60;;
5900;SDS011;2976;49.764;9.796;2023-07-29T10:00:36;6.53;;;0.70;;
5900;SDS011;2976;49.764;9.796;2023-07-29T10:03:04;0.57;;;0.57;;
5900;SDS011;2976;49.764;9.796;2023-07-29T10:05:30;1.23;;;0.60;;
5900;SDS011;2976;49.764;9.796;2023-07-29T10:07:56;5.83;;;0.80;;
5900;SDS011;2976;49.764;9.796;2023-07-29T10:10:22;1.27;;;0.63;;
5900;SDS011;2976;49.764;9.796;2023-07-29T10:12:48;0.67;;;0.60;;
5900;SDS011;2976;49.764;9.796;2023-07-29T10:15:14;0.93;;;0.90;;
5900;SDS011;2976;49.764;9.796;2023-07-29T10:17:40;2.63;;;1.23;;
5900;SDS011;2976;49.764;9.796;2023-07-29T10:20:07;1.87;;;1.00;;
5900;SDS011;2976;49.764;9.796;2023-07-29T10:22:41;1.20;;;1.20;;
5900;SDS011;2976;49.764;9.796;2023-07-29T10:25:15;1.37;;;1.30;;
5900;SDS011;2976;49.764;9.796;2023-07-29T10:27:43;2.03;;;1.20;;
5900;SDS011;2976;49.764;9.796;2023-07-29T10:30:15;1.47;;;1.00;;
5900;SDS011;2976;49.764;9.796;2023-07-29T10:32:44;1.10;;;1.10;;
5900;SDS011;2976;49.764;9.796;2023-07-29T10:35:13;2.00;;;1.30;;
5900;SDS011;2976;49.764;9.796;2023-07-29T10:37:40;1.27;;;1.27;;
5900;SDS011;2976;49.764;9.796;2023-07-29T10:40:10;4.30;;;1.60;;
5900;SDS011;2976;49.764;9.796;2023-07-29T10:42:37;6.50;;;1.53;;
5900;SDS011;2976;49.764;9.796;2023-07-29T10:45:19;4.00;;;1.30;;
5900;SDS011;2976;49.764;9.796;2023-07-29T10:47:46;2.10;;;1.30;;
5900;SDS011;2976;49.764;9.796;2023-07-29T10:50:20;3.10;;;1.80;;
5900;SDS011;2976;49.764;9.796;2023-07-29T10:52:52;2.20;;;1.10;;
5900;SDS011;2976;49.764;9.796;2023-07-29T10:55:25;1.60;;;1.50;;
5900;SDS011;2976;49.764;9.796;2023-07-29T10:58:07;1.60;;;1.50;;
5900;SDS011;2976;49.764;9.796;2023-07-29T11:00:42;1.90;;;1.60;;
5900;SDS011;2976;49.764;9.796;2023-07-29T11:03:11;2.20;;;1.50;;
5900;SDS011;2976;49.764;9.796;2023-07-29T11:05:45;1.77;;;1.50;;
5900;SDS011;2976;49.764;9.796;2023-07-29T11:08:30;1.43;;;1.43;;
5900;SDS011;2976;49.764;9.796;2023-07-29T11:11:00;1.47;;;1.37;;
5900;SDS011;2976;49.764;9.796;2023-07-29T11:13:27;1.30;;;1.10;;
5900;SDS011;2976;49.764;9.796;2023-07-29T11:15:54;1.00;;;1.00;;
5900;SDS011;2976;49.764;9.796;2023-07-29T11:18:21;7.80;;;1.40;;
5900;SDS011;2976;49.764;9.796;2023-07-29T11:20:47;1.37;;;1.27;;
5900;SDS011;2976;49.764;9.796;2023-07-29T11:23:13;1.20;;;1.20;;
5900;SDS011;2976;49.764;9.796;2023-07-29T11:25:40;1.10;;;1.10;;
5900;SDS011;2976;49.764;9.796;2023-07-29T11:28:06;1.30;;;1.20;;
5900;SDS011;2976;49.764;9.796;2023-07-29T11:30:31;3.70;;;1.63;;
5900;SDS011;2976;49.764;9.796;2023-07-29T11:32:58;1.10;;;1.10;;
5900;SDS011;2976;49.764;9.796;2023-07-29T11:35:24;1.20;;;1.20;;
5900;SDS011;2976;49.764;9.796;2023-07-29T11:37:50;1.40;;;1.23;;
5900;SDS011;2976;49.764;9.796;2023-07-29T11:40:21;1.77;;;1.23;;
5900;SDS011;2976;49.764;9.796;2023-07-29T11:42:48;3.13;;;1.00;;
5900;SDS011;2976;49.764;9.796;2023-07-29T11:45:18;1.50;;;1.23;;
5900;SDS011;2976;49.764;9.796;2023-07-29T11:47:45;1.20;;;1.20;;
5900;SDS011;2976;49.764;9.796;2023-07-29T11:50:11;2.43;;;1.40;;
5900;SDS011;2976;49.764;9.796;2023-07-29T11:52:48;1.03;;;1.03;;
5900;SDS011;2976;49.764;9.796;2023-07-29T11:55:14;1.33;;;1.23;;
5900;SDS011;2976;49.764;9.796;2023-07-29T11:57:40;1.70;;;1.60;;
5900;SDS011;2976;49.764;9.796;2023-07-29T12:00:08;2.00;;;1.47;;
5900;SDS011;2976;49.764;9.796;2023-07-29T12:02:38;2.00;;;1.83;;
5900;SDS011;2976;49.764;9.796;2023-07-29T12:05:05;1.80;;;1.70;;
5900;SDS011;2976;49.764;9.796;2023-07-29T12:07:33;1.37;;;1.27;;
5900;SDS011;2976;49.764;9.796;2023-07-29T12:09:59;3.40;;;1.63;;
5900;SDS011;2976;49.764;9.796;2023-07-29T12:12:25;1.63;;;1.53;;
5900;SDS011;2976;49.764;9.796;2023-07-29T12:14:51;2.93;;;1.50;;
5900;SDS011;2976;49.764;9.796;2023-07-29T12:17:19;1.70;;;1.60;;
5900;SDS011;2976;49.764;9.796;2023-07-29T12:19:44;6.50;;;1.90;;
5900;SDS011;2976;49.764;9.796;2023-07-29T12:22:10;1.70;;;1.50;;
5900;SDS011;2976;49.764;9.796;2023-07-29T12:24:37;1.67;;;1.30;;
5900;SDS011;2976;49.764;9.796;2023-07-29T12:27:04;1.47;;;1.37;;
5900;SDS011;2976;49.764;9.796;2023-07-29T12:29:39;1.43;;;1.37;;
5900;SDS011;2976;49.764;9.796;2023-07-29T12:32:06;1.70;;;1.60;;
5900;SDS011;2976;49.764;9.796;2023-07-29T12:34:32;2.57;;;1.50;;
5900;SDS011;2976;49.764;9.796;2023-07-29T12:36:58;1.60;;;1.50;;
5900;SDS011;2976;49.764;9.796;2023-07-29T12:39:25;2.27;;;1.60;;
5900;SDS011;2976;49.764;9.796;2023-07-29T12:41:52;3.10;;;1.23;;
5900;SDS011;2976;49.764;9.796;2023-07-29T12:44:19;1.90;;;1.30;;
5900;SDS011;2976;49.764;9.796;2023-07-29T12:46:45;1.90;;;1.70;;
5900;SDS011;2976;49.764;9.796;2023-07-29T12:49:11;1.93;;;1.83;;
5900;SDS011;2976;49.764;9.796;2023-07-29T12:51:37;8.93;;;2.27;;
5900;SDS011;2976;49.764;9.796;2023-07-29T12:54:05;1.97;;;1.87;;
5900;SDS011;2976;49.764;9.796;2023-07-29T12:56:31;2.50;;;1.43;;
5900;SDS011;2976;49.764;9.796;2023-07-29T12:58:58;1.97;;;1.83;;
5900;SDS011;2976;49.764;9.796;2023-07-29T13:01:24;6.60;;;2.00;;
5900;SDS011;2976;49.764;9.796;2023-07-29T13:03:50;2.60;;;2.00;;
5900;SDS011;2976;49.764;9.796;2023-07-29T13:06:16;2.50;;;1.80;;
5900;SDS011;2976;49.764;9.796;2023-07-29T13:08:42;1.87;;;1.77;;
5900;SDS011;2976;49.764;9.796;2023-07-29T13:11:09;2.60;;;1.40;;
5900;SDS011;2976;49.764;9.796;2023-07-29T13:13:34;2.20;;;1.70;;
5900;SDS011;2976;49.764;9.796;2023-07-29T13:16:00;6.07;;;1.93;;
5900;SDS011;2976;49.764;9.796;2023-07-29T13:18:26;1.57;;;1.50;;
5900;SDS011;2976;49.764;9.796;2023-07-29T13:20:51;2.67;;;1.30;;
5900;SDS011;2976;49.764;9.796;2023-07-29T13:23:17;2.80;;;1.10;;
5900;SDS011;2976;49.764;9.796;2023-07-29T13:25:43;1.27;;;1.00;;
5900;SDS011;2976;49.764;9.796;2023-07-29T13:28:09;1.17;;;0.93;;
5900;SDS011;2976;49.764;9.796;2023-07-29T13:30:35;1.43;;;1.33;;
5900;SDS011;2976;49.764;9.796;2023-07-29T13:33:01;2.67;;;1.83;;
5900;SDS011;2976;49.764;9.796;2023-07-29T13:35:27;2.47;;;1.13;;
5900;SDS011;2976;49.764;9.796;2023-07-29T13:37:53;1.83;;;1.20;;
5900;SDS011;2976;49.764;9.796;2023-07-29T13:40:19;1.43;;;1.00;;
5900;SDS011;2976;49.764;9.796;2023-07-29T13:42:44;1.33;;;1.10;;
5900;SDS011;2976;49.764;9.796;2023-07-29T13:45:10;1.87;;;1.30;;
5900;SDS011;2976;49.764;9.796;2023-07-29T13:47:35;1.43;;;1.23;;
5900;SDS011;2976;49.764;9.796;2023-07-29T13:50:01;2.40;;;1.43;;
5900;SDS011;2976;49.764;9.796;2023-07-29T13:52:29;2.00;;;1.80;;
5900;SDS011;2976;49.764;9.796;2023-07-29T13:54:54;1.77;;;1.50;;
5900;SDS011;2976;49.764;9.796;2023-07-29T13:57:20;2.03;;;1.30;;
5900;SDS011;2976;49.764;9.796;2023-07-29T13:59:45;2.47;;;1.30;;
5900;SDS011;2976;49.764;9.796;2023-07-29T14:02:11;3.03;;;1.40;;
5900;SDS011;2976;49.764;9.796;2023-07-29T14:04:36;2.40;;;1.53;;
5900;SDS011;2976;49.764;9.796;2023-07-29T14:07:02;1.53;;;1.43;;
5900;SDS011;2976;49.764;9.796;2023-07-29T14:09:28;1.10;;;1.10;;
5900;SDS011;2976;49.764;9.796;2023-07-29T14:11:53;1.57;;;1.50;;
5900;SDS011;2976;49.764;9.796;2023-07-29T14:14:19;2.67;;;1.10;;
5900;SDS011;2976;49.764;9.796;2023-07-29T14:16:45;2.87;;;1.30;;
5900;SDS011;2976;49.764;9.796;2023-07-29T14:19:11;1.50;;;1.40;;
5900;SDS011;2976;49.764;9.796;2023-07-29T14:21:37;1.17;;;1.17;;
5900;SDS011;2976;49.764;9.796;2023-07-29T14:24:03;1.43;;;1.33;;
5900;SDS011;2976;49.764;9.796;2023-07-29T14:26:29;2.03;;;1.60;;
5900;SDS011;2976;49.764;9.796;2023-07-29T14:28:54;1.67;;;1.57;;
5900;SDS011;2976;49.764;9.796;2023-07-29T14:31:20;1.60;;;1.30;;
5900;SDS011;2976;49.764;9.796;2023-07-29T14:33:45;6.43;;;1.53;;
5900;SDS011;2976;49.764;9.796;2023-07-29T14:36:11;1.20;;;1.20;;
5900;SDS011;2976;49.764;9.796;2023-07-29T14:38:36;1.73;;;1.20;;
5900;SDS011;2976;49.764;9.796;2023-07-29T14:41:02;1.23;;;1.13;;
5900;SDS011;2976;49.764;9.796;2023-07-29T14:43:29;1.10;;;1.10;;
5900;SDS011;2976;49.764;9.796;2023-07-29T14:45:55;1.50;;;1.40;;
5900;SDS011;2976;49.764;9.796;2023-07-29T14:48:21;1.70;;;1.40;;
5900;SDS011;2976;49.764;9.796;2023-07-29T14:50:46;1.73;;;1.50;;
5900;SDS011;2976;49.764;9.796;2023-07-29T14:53:12;1.40;;;1.40;;
5900;SDS011;2976;49.764;9.796;2023-07-29T14:55:38;1.50;;;1.40;;
5900;SDS011;2976;49.764;9.796;2023-07-29T14:58:03;2.00;;;1.47;;
5900;SDS011;2976;49.764;9.796;2023-07-29T15:00:29;1.40;;;1.30;;
5900;SDS011;2976;49.764;9.796;2023-07-29T15:02:55;1.53;;;1.43;;
5900;SDS011;2976;49.764;9.796;2023-07-29T15:05:21;2.90;;;1.40;;
5900;SDS011;2976;49.764;9.796;2023-07-29T15:07:46;4.00;;;1.37;;
5900;SDS011;2976;49.764;9.796;2023-07-29T15:10:16;1.33;;;1.23;;
5900;SDS011;2976;49.764;9.796;2023-07-29T15:12:42;2.10;;;1.53;;
5900;SDS011;2976;49.764;9.796;2023-07-29T15:15:09;1.60;;;1.57;;